Time;durP1;ratioP1;P1;durP2;ratioP2;P2;SDS_P1;SDS_P2;PMS_P1;PMS_P2;Temp;Humidity;BMP_temperature;BMP_pressure;BME280_temperature;BME280_humidity;BME280_pressure;Samples;Min_cycle;Max_cycle;Signal;HPM_P1;HPM_P2
2022/02/04 00:27:46;;;;;;;6.35;2.70;;;-14.90;94.30;;;;;;4957017;28;20027;-67
2022/02/04 00:30:38;;;;;;;4.93;2.60;;;-14.90;94.30;;;;;;4957162;28;20035;-67
2022/02/04 00:33:00;;;;;;;3.38;2.42;;;-14.90;94.40;;;;;;4956641;29;20043;-67
2022/02/04 00:38:07;;;;;;;5.05;3.05;;;-14.80;95.00;;;;;;4956761;28;20059;-67
2022/02/04 00:40:37;;;;;;;7.57;3.00;;;-14.80;95.60;;;;;;4957176;28;20117;-67
2022/02/04 00:43:07;;;;;;;9.60;2.85;;;-14.80;96.70;;;;;;4957069;28;20027;-67
2022/02/04 00:45:46;;;;;;;7.25;3.75;;;-14.80;97.70;;;;;;4956606;28;20126;-67
2022/02/04 00:48:32;;;;;;;9.32;3.47;;;-14.80;98.50;;;;;;4956618;28;20491;-67
2022/02/04 00:51:19;;;;;;;6.13;3.25;;;-14.90;99.10;;;;;;4956697;28;20060;-67
2022/02/04 00:56:27;;;;;;;9.00;3.80;;;-14.80;99.90;;;;;;4956461;28;20023;-66
2022/02/04 01:26:11;;;;;;;5.53;3.03;;;-14.60;99.90;;;;;;4956089;29;20047;-67
2022/02/04 01:28:40;;;;;;;6.28;3.00;;;-14.50;99.90;;;;;;4956155;28;20027;-67
2022/02/04 01:31:07;;;;;;;6.32;3.10;;;-14.50;99.90;;;;;;4955889;28;20015;-67
2022/02/04 01:33:34;;;;;;;5.00;3.00;;;-14.40;99.90;;;;;;4956068;28;20442;-68
2022/02/04 01:36:01;;;;;;;5.15;3.40;;;-14.40;99.90;;;;;;4955990;28;20087;-68
2022/02/04 01:38:28;;;;;;;4.90;3.03;;;-14.30;99.90;;;;;;4955295;28;20051;-68
2022/02/04 01:40:55;;;;;;;6.05;3.47;;;-14.30;99.90;;;;;;4955965;28;20035;-68
2022/02/04 01:43:22;;;;;;;7.43;3.22;;;-14.20;99.90;;;;;;4955355;28;20054;-68
2022/02/04 01:45:53;;;;;;;6.72;3.60;;;-14.10;99.90;;;;;;4955733;28;20110;-68
2022/02/04 01:48:19;;;;;;;5.22;3.20;;;-14.10;99.90;;;;;;4955500;28;20110;-68
2022/02/04 01:50:46;;;;;;;4.63;2.85;;;-14.20;99.90;;;;;;4955902;28;20027;-68
2022/02/04 01:53:13;;;;;;;7.07;3.42;;;-14.20;99.90;;;;;;4955625;28;20094;-68
2022/02/04 01:55:44;;;;;;;7.55;3.22;;;-14.20;99.90;;;;;;4955770;28;20447;-68
2022/02/04 01:58:10;;;;;;;10.70;3.47;;;-14.10;99.90;;;;;;4955578;28;20123;-67
2022/02/04 02:00:37;;;;;;;7.38;3.47;;;-14.00;99.90;;;;;;4955509;28;20110;-68
2022/02/04 02:03:04;;;;;;;7.60;3.67;;;-13.90;99.90;;;;;;4955560;28;20035;-68
2022/02/04 02:05:30;;;;;;;6.28;3.80;;;-13.90;99.90;;;;;;4955006;28;20585;-68
2022/02/04 02:08:07;;;;;;;9.13;3.90;;;-13.80;99.90;;;;;;4955411;28;20118;-68
2022/02/04 02:10:33;;;;;;;6.90;3.42;;;-13.70;99.90;;;;;;4955366;28;20439;-68
2022/02/04 02:15:47;;;;;;;8.98;4.10;;;-13.60;99.90;;;;;;4955011;28;20027;-68
2022/02/04 02:58:16;;;;;;;6.75;3.90;;;-12.90;99.90;;;;;;4954280;28;20344;-68
2022/02/04 03:03:10;;;;;;;6.22;3.35;;;-12.90;99.90;;;;;;4954680;28;20415;-68
2022/02/04 03:36:40;;;;;;;7.10;3.83;;;-12.30;99.90;;;;;;6127845;23;20004;-73
2022/02/04 03:39:06;;;;;;;9.10;3.78;;;-12.30;99.90;;;;;;5047591;28;20057;-74
2022/02/04 03:41:32;;;;;;;8.57;4.18;;;-12.20;99.90;;;;;;5055365;28;20096;-74
2022/02/04 03:43:57;;;;;;;7.32;3.83;;;-12.20;99.90;;;;;;5055781;28;20078;-74
2022/02/04 03:46:23;;;;;;;9.52;4.45;;;-12.10;99.90;;;;;;5055700;28;20033;-75
2022/02/04 03:48:49;;;;;;;6.28;3.75;;;-12.10;99.90;;;;;;5055673;28;20108;-74
2022/02/04 03:51:15;;;;;;;6.97;3.67;;;-12.00;99.90;;;;;;5055971;28;20029;-74
2022/02/04 03:53:40;;;;;;;9.98;4.53;;;-12.00;99.90;;;;;;5055987;28;20096;-74
2022/02/04 03:56:06;;;;;;;7.20;4.38;;;-11.90;99.90;;;;;;5055770;28;20514;-74
2022/02/04 03:58:36;;;;;;;6.43;4.35;;;-11.90;99.90;;;;;;5055525;28;20422;-74
2022/02/04 04:01:03;;;;;;;6.10;3.70;;;-11.80;99.90;;;;;;5055637;28;20075;-72
2022/02/04 04:03:29;;;;;;;8.52;4.28;;;-11.70;99.90;;;;;;5054045;28;20354;-72
2022/02/04 04:05:55;;;;;;;10.40;4.78;;;-11.70;99.90;;;;;;5055511;28;20029;-72
2022/02/04 04:08:21;;;;;;;11.40;5.00;;;-11.70;99.90;;;;;;5055477;28;20482;-72
2022/02/04 04:10:47;;;;;;;9.88;4.78;;;-11.60;99.90;;;;;;5055484;28;20386;-72
2022/02/04 04:13:14;;;;;;;8.27;4.93;;;-11.50;99.90;;;;;;5055071;28;20464;-72
2022/02/04 04:15:40;;;;;;;8.13;4.47;;;-11.50;99.90;;;;;;5055349;28;20020;-72
2022/02/04 04:18:06;;;;;;;10.27;5.03;;;-11.50;99.90;;;;;;5055247;28;20047;-72
2022/02/04 04:20:32;;;;;;;9.32;4.78;;;-11.40;99.90;;;;;;5055103;28;20526;-72
2022/02/04 04:22:59;;;;;;;7.93;4.38;;;-11.40;99.90;;;;;;5055219;28;20021;-72
2022/02/04 04:25:26;;;;;;;11.70;5.28;;;-11.30;99.90;;;;;;5055084;28;20425;-72
2022/02/04 04:27:55;;;;;;;11.05;5.22;;;-11.30;99.90;;;;;;5055382;28;20089;-79
2022/02/04 04:30:23;;;;;;;9.52;4.93;;;-11.20;99.90;;;;;;5055340;28;20017;-79
2022/02/04 04:32:50;;;;;;;14.38;6.05;;;-11.20;99.90;;;;;;5055038;28;20086;-78
2022/02/04 04:35:19;;;;;;;15.60;5.45;;;-11.10;99.90;;;;;;5070236;28;20108;-77
2022/02/04 04:37:55;;;;;;;13.30;5.38;;;-11.10;99.90;;;;;;5064935;28;20094;-78
2022/02/04 05:29:19;;;;;;;18.02;6.38;;;-10.30;99.90;;;;;;5073069;28;20017;-76
2022/02/04 05:31:46;;;;;;;20.55;8.10;;;-10.30;99.90;;;;;;5074169;28;20434;-74
2022/02/04 05:34:17;;;;;;;17.90;6.18;;;-10.30;99.90;;;;;;5073696;28;20051;-70
2022/02/04 05:36:46;;;;;;;16.35;6.10;;;-10.20;99.90;;;;;;5073414;28;20032;-77
2022/02/04 05:39:13;;;;;;;19.33;7.50;;;-10.20;99.90;;;;;;5073820;28;20039;-75
2022/02/04 05:41:47;;;;;;;19.70;6.50;;;-10.10;99.90;;;;;;5073704;28;20078;-79
2022/02/04 05:44:14;;;;;;;14.27;5.57;;;-9.90;99.90;;;;;;5087940;28;20036;-76
2022/02/04 05:46:50;;;;;;;19.00;7.38;;;-9.50;99.90;;;;;;5085335;28;20043;-69
2022/02/04 05:49:18;;;;;;;14.20;6.35;;;-9.60;99.90;;;;;;5085520;28;20028;-73
2022/02/04 05:54:58;;;;;;;15.80;5.95;;;-9.80;99.90;;;;;;5080639;28;20043;-70
2022/02/04 05:57:37;;;;;;;18.35;6.72;;;-9.80;99.90;;;;;;5074302;28;20024;-70
2022/02/04 06:03:00;;;;;;;16.38;6.03;;;-9.80;99.90;;;;;;5083221;28;20030;-68
2022/02/04 06:06:17;;;;;;;16.25;6.82;;;-9.80;99.90;;;;;;5082846;28;20390;-70
2022/02/04 06:08:36;;;;;;;14.13;6.53;;;-9.70;99.90;;;;;;5070896;28;20044;-71
2022/02/04 06:24:10;;;;;;;18.63;7.57;;;-9.50;99.90;;;;;;5073070;28;20082;-70
2022/02/04 06:26:36;;;;;;;18.17;7.25;;;-9.40;99.90;;;;;;5072789;28;20131;-73
2022/02/04 06:29:04;;;;;;;18.90;6.05;;;-9.40;99.90;;;;;;5072618;28;20017;-72
2022/02/04 06:31:30;;;;;;;17.55;5.93;;;-9.00;99.90;;;;;;5072772;28;20036;-72
2022/02/04 06:33:55;;;;;;;17.27;6.13;;;-9.00;99.90;;;;;;5072542;28;20048;-72
2022/02/04 06:36:21;;;;;;;12.75;5.38;;;-9.00;99.90;;;;;;5072414;28;20121;-72
2022/02/04 06:38:47;;;;;;;21.88;6.97;;;-9.00;99.90;;;;;;5072194;28;20129;-72
2022/02/04 06:41:13;;;;;;;19.63;6.22;;;-9.00;99.90;;;;;;5072554;28;20028;-79
2022/02/04 06:43:38;;;;;;;18.23;6.82;;;-8.80;99.90;;;;;;5072191;28;20103;-79
2022/02/04 06:46:04;;;;;;;11.73;5.43;;;-8.80;99.90;;;;;;5072515;28;20042;-79
2022/02/04 06:48:30;;;;;;;14.48;6.05;;;-8.70;99.90;;;;;;5072144;28;20029;-79
2022/02/04 06:50:56;;;;;;;16.50;5.65;;;-8.70;99.90;;;;;;5072335;28;20093;-79
2022/02/04 06:53:22;;;;;;;21.48;7.22;;;-7.50;99.90;;;;;;5072114;28;20055;-79
2022/02/04 06:55:47;;;;;;;17.13;6.53;;;-7.60;99.90;;;;;;5072203;28;20020;-79
2022/02/04 06:58:13;;;;;;;21.02;7.07;;;-7.80;99.90;;;;;;5072445;28;20035;-79
2022/02/04 07:00:40;;;;;;;22.00;7.80;;;-8.00;99.90;;;;;;5072060;28;20456;-79
2022/02/04 07:03:06;;;;;;;18.30;8.00;;;-8.00;99.90;;;;;;5072082;28;20052;-79
2022/02/04 07:05:40;;;;;;;7.05;3.35;;;-8.10;99.90;;;;;;5072031;28;20032;-78
2022/02/04 07:08:17;;;;;;;19.60;7.10;;;-7.60;99.90;;;;;;5072390;28;20036;-79
2022/02/04 07:13:41;;;;;;;20.13;5.53;;;-6.80;99.90;;;;;;5072408;28;20761;-78
2022/02/04 07:16:25;;;;;;;20.00;6.40;;;-7.10;99.90;;;;;;5071649;28;20551;-75
2022/02/04 07:21:36;;;;;;;16.88;6.75;;;-7.40;99.90;;;;;;5072111;28;20035;-75
2022/02/04 07:24:02;;;;;;;16.02;6.32;;;-7.20;99.90;;;;;;5072021;28;20024;-73
2022/02/04 07:26:32;;;;;;;17.10;6.38;;;-7.30;99.90;;;;;;5072120;28;20028;-75
2022/02/04 07:28:58;;;;;;;18.95;6.53;;;-7.30;99.90;;;;;;5071971;28;20020;-70
2022/02/04 07:31:26;;;;;;;19.13;5.95;;;-7.40;99.90;;;;;;5071758;28;20104;-75
2022/02/04 07:34:05;;;;;;;16.98;5.75;;;-7.40;99.90;;;;;;5070461;28;20067;-73
2022/02/04 07:41:50;;;;;;;14.27;5.15;;;-7.30;99.90;;;;;;5073528;28;20025;-77
2022/02/04 07:44:17;;;;;;;17.42;5.70;;;-7.20;99.90;;;;;;5071312;28;20051;-80
2022/02/04 07:46:43;;;;;;;16.10;6.40;;;-7.20;99.90;;;;;;5071475;28;20076;-80
2022/02/04 07:49:11;;;;;;;16.63;6.45;;;-7.20;99.90;;;;;;5071334;28;20048;-80
2022/02/04 07:51:36;;;;;;;12.00;5.47;;;-7.20;99.90;;;;;;5070849;28;20036;-80
2022/02/04 07:54:03;;;;;;;18.25;5.57;;;-7.10;99.90;;;;;;5074057;28;20016;-79
2022/02/04 07:56:28;;;;;;;28.60;6.57;;;-7.10;99.90;;;;;;5091130;28;20094;-73
2022/02/04 07:58:56;;;;;;;25.73;6.95;;;-7.10;99.90;;;;;;5075199;28;20017;-72
2022/02/04 08:01:27;;;;;;;17.25;6.05;;;-7.00;99.90;;;;;;5070996;28;20029;-73
2022/02/04 08:04:11;;;;;;;20.77;5.78;;;-7.00;99.90;;;;;;5083178;28;20028;-73
2022/02/04 08:06:42;;;;;;;24.95;6.95;;;-7.00;99.90;;;;;;5074557;28;20062;-80
2022/02/04 08:09:27;;;;;;;16.13;4.95;;;-6.90;99.90;;;;;;5071096;28;20023;-75
2022/02/04 08:12:09;;;;;;;11.55;5.35;;;-6.90;99.90;;;;;;5082809;28;20678;-77
2022/02/04 08:33:53;;;;;;;12.55;4.25;;;-6.60;99.90;;;;;;5093991;28;20024;-74
2022/02/04 08:47:10;;;;;;;16.08;5.53;;;-5.80;99.90;;;;;;5074658;28;20040;-72
2022/02/04 08:54:59;;;;;;;29.02;7.03;;;-6.10;99.90;;;;;;5074435;28;20036;-72
2022/02/04 08:57:38;;;;;;;19.33;6.72;;;-6.10;99.90;;;;;;5074402;28;20024;-72
2022/02/04 09:02:52;;;;;;;20.17;6.57;;;-6.10;99.90;;;;;;5074453;28;20025;-72
2022/02/04 09:05:18;;;;;;;23.60;5.82;;;-6.10;99.90;;;;;;5074236;28;20036;-72
2022/02/04 09:07:52;;;;;;;18.48;6.55;;;-6.10;99.90;;;;;;5074442;28;20082;-72
2022/02/04 09:10:23;;;;;;;19.95;6.80;;;-6.10;99.90;;;;;;5074388;28;20108;-72
2022/02/04 09:18:34;;;;;;;17.48;6.60;;;-6.10;99.90;;;;;;5074390;28;20532;-72
2022/02/04 09:23:14;;;;;;;20.58;7.22;;;-6.00;99.90;;;;;;5074324;28;20048;-72
2022/02/04 09:25:40;;;;;;;14.82;6.13;;;-6.00;99.90;;;;;;5073611;28;20067;-72
2022/02/04 09:28:06;;;;;;;22.50;7.78;;;-6.00;99.90;;;;;;5074188;28;20048;-72
2022/02/04 09:30:32;;;;;;;17.13;5.68;;;-6.00;99.90;;;;;;5073747;28;20016;-73
2022/02/04 09:32:58;;;;;;;16.02;6.57;;;-5.90;99.90;;;;;;5073704;28;20074;-73
2022/02/04 09:35:25;;;;;;;21.00;7.30;;;-4.50;99.90;;;;;;5073923;28;20074;-73
2022/02/04 09:37:52;;;;;;;16.13;6.57;;;-4.30;99.90;;;;;;5072307;28;20126;-73
2022/02/04 09:40:19;;;;;;;20.60;6.88;;;-4.60;99.90;;;;;;5073648;28;20029;-74
2022/02/04 09:42:45;;;;;;;14.57;5.88;;;-4.90;99.90;;;;;;5073554;28;20024;-74
2022/02/04 09:45:13;;;;;;;15.07;5.68;;;-5.10;99.90;;;;;;5073673;28;20025;-75
2022/02/04 09:47:42;;;;;;;23.88;6.72;;;-5.20;99.90;;;;;;5073581;28;20527;-78
2022/02/04 09:50:16;;;;;;;17.42;5.90;;;-5.30;99.90;;;;;;5075972;28;20020;-73
2022/02/04 10:19:48;;;;;;;16.05;6.00;;;-5.10;99.90;;;;;;5081330;28;20051;-77
2022/02/04 10:22:26;;;;;;;15.23;5.22;;;-5.00;99.90;;;;;;5083407;28;20395;-77
2022/02/04 10:25:08;;;;;;;12.35;5.63;;;-4.90;99.90;;;;;;5082653;28;20043;-77
2022/02/04 10:27:35;;;;;;;18.00;5.53;;;-4.90;99.90;;;;;;5085753;28;20498;-76
2022/02/04 10:30:11;;;;;;;14.15;5.70;;;-4.80;99.90;;;;;;5093354;28;20102;-76
2022/02/04 10:32:40;;;;;;;14.60;5.45;;;-4.80;99.90;;;;;;5092721;28;20035;-77
2022/02/04 10:35:26;;;;;;;10.35;4.82;;;-4.70;99.90;;;;;;5093086;28;20103;-77
2022/02/04 10:44:18;;;;;;;11.88;5.57;;;-4.60;99.90;;;;;;5082703;28;20027;-81
2022/02/04 10:46:57;;;;;;;12.10;4.63;;;-4.50;99.90;;;;;;5066551;28;20086;-79
2022/02/04 10:55:18;;;;;;;15.35;5.60;;;-4.50;99.90;;;;;;5080962;28;20379;-79
2022/02/04 11:00:42;;;;;;;13.32;5.97;;;-4.40;99.90;;;;;;5053949;28;20545;-78
2022/02/04 11:03:11;;;;;;;15.52;5.38;;;-4.30;99.90;;;;;;5083137;28;20360;-80
2022/02/04 11:05:49;;;;;;;16.05;5.40;;;-4.30;99.90;;;;;;5082848;28;20032;-80
2022/02/04 11:08:44;;;;;;;14.98;5.97;;;-4.30;99.90;;;;;;5082643;28;20050;-81
2022/02/04 11:35:49;;;;;;;13.70;4.40;;;-3.90;99.90;;;;;;5071852;28;20490;-82
2022/02/04 11:56:56;;;;;;;14.98;4.65;;;-3.40;99.90;;;;;;5078272;28;20024;-79
2022/02/04 11:59:39;;;;;;;11.15;5.05;;;-3.40;99.90;;;;;;5091795;28;20065;-77
2022/02/04 12:02:24;;;;;;;9.88;4.40;;;-3.40;99.90;;;;;;5095031;28;20031;-78
2022/02/04 12:05:14;;;;;;;14.48;5.38;;;-3.40;99.90;;;;;;5092253;28;20052;-78
2022/02/04 12:07:42;;;;;;;14.57;5.55;;;-3.30;99.90;;;;;;5090427;28;20032;-79
2022/02/04 12:10:17;;;;;;;11.15;4.78;;;-3.30;99.90;;;;;;5082572;28;20032;-80
2022/02/04 12:13:06;;;;;;;14.73;6.60;;;-3.30;99.90;;;;;;5075714;28;20035;-81
2022/02/04 12:15:35;;;;;;;12.10;4.97;;;-3.20;99.90;;;;;;5078130;28;20033;-79
2022/02/04 12:18:07;;;;;;;10.50;4.90;;;-3.20;99.90;;;;;;5075310;28;20033;-81
2022/02/04 12:20:53;;;;;;;8.25;4.28;;;-3.10;99.90;;;;;;5075311;28;20050;-76
2022/02/04 12:23:35;;;;;;;16.15;5.57;;;-3.10;99.90;;;;;;5075201;28;20021;-79
2022/02/04 12:26:16;;;;;;;12.52;5.05;;;-3.10;99.90;;;;;;5075034;28;20017;-74
2022/02/04 12:29:01;;;;;;;11.50;4.50;;;-3.00;99.90;;;;;;5074946;28;20024;-74
2022/02/04 12:31:53;;;;;;;9.10;4.72;;;-3.00;99.90;;;;;;5075094;28;20035;-74
2022/02/04 12:34:19;;;;;;;9.32;4.18;;;-3.00;99.90;;;;;;5071152;28;20048;-74
2022/02/04 12:36:54;;;;;;;6.53;3.45;;;-3.00;99.90;;;;;;5074591;28;20024;-74
2022/02/04 12:39:25;;;;;;;7.60;4.35;;;-2.90;99.90;;;;;;5074897;28;20031;-74
2022/02/04 12:41:53;;;;;;;11.98;4.60;;;-2.90;99.90;;;;;;5074828;28;20024;-74
2022/02/04 12:44:20;;;;;;;13.25;4.57;;;-2.90;99.90;;;;;;5074750;28;20020;-74
2022/02/04 12:46:49;;;;;;;14.85;5.18;;;-2.90;99.90;;;;;;5074520;28;20021;-74
2022/02/04 12:49:20;;;;;;;10.32;4.93;;;-2.90;99.90;;;;;;5074891;28;20032;-74
2022/02/04 12:54:42;;;;;;;10.30;4.45;;;-2.90;99.90;;;;;;5074662;28;20051;-76
2022/02/04 13:10:45;;;;;;;8.85;4.53;;;-2.80;99.90;;;;;;5079509;28;20497;-78
2022/02/04 13:13:14;;;;;;;9.23;3.95;;;-2.80;99.90;;;;;;5086436;28;20115;-73
2022/02/04 13:15:42;;;;;;;10.80;5.45;;;-2.80;99.90;;;;;;5094601;28;20032;-72
2022/02/04 13:18:13;;;;;;;7.53;4.10;;;-2.80;99.90;;;;;;5094422;28;20028;-72
2022/02/04 13:20:44;;;;;;;10.10;4.40;;;-2.50;99.90;;;;;;5094307;28;20370;-72
2022/02/04 13:23:14;;;;;;;8.75;4.38;;;-2.60;99.90;;;;;;5094789;28;20170;-71
2022/02/04 13:25:45;;;;;;;7.78;3.55;;;-2.60;99.90;;;;;;5094189;28;20039;-78
2022/02/04 13:28:27;;;;;;;9.85;4.28;;;-2.60;99.90;;;;;;5094290;28;20089;-71
2022/02/04 13:31:22;;;;;;;6.38;3.90;;;-2.60;99.90;;;;;;5094077;28;20494;-72
2022/02/04 13:33:51;;;;;;;8.88;4.32;;;-2.60;99.90;;;;;;5077135;28;20444;-72
2022/02/04 13:49:40;;;;;;;6.80;3.58;;;-2.50;99.90;;;;;;5094190;28;20069;-72
2022/02/04 13:52:19;;;;;;;11.10;4.28;;;-2.40;99.90;;;;;;5093747;28;20049;-73
2022/02/04 14:00:00;;;;;;;5.72;3.00;;;-2.30;99.90;;;;;;5093556;28;20478;-75
2022/02/04 14:02:33;;;;;;;6.88;3.45;;;-2.30;99.90;;;;;;5093885;28;20482;-75
2022/02/04 14:05:02;;;;;;;7.20;3.75;;;-2.40;99.90;;;;;;5093419;28;20020;-75
2022/02/04 14:07:39;;;;;;;5.85;3.25;;;-2.30;99.90;;;;;;5081569;28;20028;-75
2022/02/04 14:10:28;;;;;;;6.22;3.30;;;-2.30;99.90;;;;;;5074266;28;20065;-75
2022/02/04 14:13:07;;;;;;;8.30;3.80;;;-2.30;99.90;;;;;;5090319;28;20020;-75
2022/02/04 14:15:35;;;;;;;8.30;4.00;;;-2.30;99.90;;;;;;5090731;28;20065;-74
2022/02/04 14:18:11;;;;;;;6.10;3.30;;;-2.30;99.90;;;;;;5083712;28;21538;-75
2022/02/04 14:20:40;;;;;;;5.45;3.15;;;-2.30;99.90;;;;;;5082988;28;20040;-75
2022/02/04 14:23:07;;;;;;;7.40;3.97;;;-2.30;99.90;;;;;;5081165;28;20020;-75
2022/02/04 14:26:19;;;;;;;5.72;3.47;;;-2.20;99.90;;;;;;5082329;28;20020;-75
2022/02/04 14:28:55;;;;;;;6.00;3.78;;;-2.20;99.90;;;;;;5083287;28;20106;-75
2022/02/04 14:31:33;;;;;;;8.60;3.60;;;-2.20;99.90;;;;;;5083450;28;20024;-75
2022/02/04 14:37:01;;;;;;;6.60;3.10;;;-2.10;99.90;;;;;;5083309;28;20039;-74
2022/02/04 14:50:55;;;;;;;10.98;3.60;;;-2.00;99.90;;;;;;5080444;28;20387;-75
2022/02/04 15:06:32;;;;;;;6.57;3.28;;;-1.90;99.90;;;;;;5080180;28;20435;-75
2022/02/04 15:08:58;;;;;;;6.68;3.78;;;-1.90;99.90;;;;;;5080636;28;20093;-76
2022/02/04 15:11:30;;;;;;;7.32;3.08;;;-1.90;99.90;;;;;;5081866;28;20491;-75
2022/02/04 15:13:58;;;;;;;8.13;3.80;;;-1.80;99.90;;;;;;5071221;28;20028;-75
2022/02/04 15:16:23;;;;;;;6.03;3.33;;;-1.80;99.90;;;;;;5071348;28;20429;-75
2022/02/04 15:18:50;;;;;;;6.57;3.22;;;-1.80;99.90;;;;;;5071196;28;20024;-75
2022/02/04 15:21:18;;;;;;;7.00;3.13;;;-1.80;99.90;;;;;;5071302;28;20016;-75
2022/02/04 15:23:48;;;;;;;6.82;3.67;;;-1.80;99.90;;;;;;5071394;28;20383;-74
2022/02/04 15:26:15;;;;;;;6.32;3.30;;;-1.70;99.90;;;;;;5071574;28;20029;-74
2022/02/04 15:28:48;;;;;;;6.28;2.85;;;-1.70;99.90;;;;;;5070949;28;20025;-74
2022/02/04 15:31:27;;;;;;;7.63;3.33;;;-1.70;99.90;;;;;;5075502;28;20170;-75
2022/02/04 15:33:54;;;;;;;8.38;4.22;;;-1.70;99.90;;;;;;5080873;28;20051;-75
2022/02/04 15:36:34;;;;;;;5.47;3.40;;;-1.60;99.90;;;;;;5078428;28;20008;-74
2022/02/04 15:39:04;;;;;;;9.60;3.90;;;-1.60;99.90;;;;;;5044656;28;1241403;-73
2022/02/04 15:41:32;;;;;;;8.30;2.97;;;-1.50;99.90;;;;;;5083857;28;20028;-74
2022/02/04 15:44:03;;;;;;;9.02;3.75;;;-1.50;99.90;;;;;;5080380;28;20429;-75
2022/02/04 15:49:22;;;;;;;8.98;4.07;;;-1.50;99.90;;;;;;5078064;28;20033;-74
2022/02/04 15:59:30;;;;;;;7.68;4.18;;;-1.40;99.90;;;;;;5091866;28;20067;-74
2022/02/04 16:04:44;;;;;;;8.13;3.47;;;-1.30;99.90;;;;;;5092082;28;20073;-74
2022/02/04 16:07:09;;;;;;;6.67;3.13;;;-1.30;99.90;;;;;;5091686;28;20035;-74
2022/02/04 16:09:36;;;;;;;6.40;3.70;;;-1.20;99.90;;;;;;5089211;28;20103;-73
2022/02/04 16:12:21;;;;;;;8.40;4.47;;;-1.20;99.90;;;;;;5079641;28;20071;-74
2022/02/04 16:14:54;;;;;;;9.98;3.60;;;-1.20;99.90;;;;;;5076584;28;20483;-70
2022/02/04 16:17:35;;;;;;;8.13;4.28;;;-1.10;99.90;;;;;;5074485;28;20033;-72
2022/02/04 16:30:07;;;;;;;10.98;3.67;;;-0.90;99.90;;;;;;5091720;28;20020;-70
2022/02/04 16:32:34;;;;;;;9.20;3.47;;;-0.80;99.90;;;;;;5091552;28;20024;-70
2022/02/04 16:35:03;;;;;;;5.68;3.28;;;-0.80;99.90;;;;;;5091399;28;20020;-71
2022/02/04 16:37:35;;;;;;;4.78;3.28;;;-0.70;99.90;;;;;;5084990;28;20059;-70
2022/02/04 16:40:15;;;;;;;7.93;3.25;;;-0.70;99.90;;;;;;5076679;28;20394;-71
2022/02/04 16:42:42;;;;;;;10.43;3.20;;;-0.60;99.90;;;;;;5071269;28;20086;-71
2022/02/04 16:45:08;;;;;;;6.75;2.67;;;-0.60;99.90;;;;;;5071048;28;20036;-70
2022/02/04 16:47:34;;;;;;;7.30;3.03;;;-0.60;99.90;;;;;;5072811;28;20491;-70
2022/02/04 16:50:01;;;;;;;6.80;2.85;;;-0.50;99.90;;;;;;5074963;28;20153;-70
2022/02/04 16:52:30;;;;;;;5.88;2.40;;;-0.50;99.90;;;;;;5074824;28;20036;-71
2022/02/04 16:54:58;;;;;;;5.13;2.38;;;-0.40;99.90;;;;;;5074560;28;20029;-70
2022/02/04 16:57:25;;;;;;;5.03;2.17;;;-0.40;99.90;;;;;;5074849;28;20074;-71
2022/02/04 16:59:57;;;;;;;4.45;1.98;;;-0.30;99.90;;;;;;5074545;28;20017;-71
2022/02/04 17:02:23;;;;;;;4.53;2.17;;;-0.30;99.90;;;;;;5074759;28;20024;-74
2022/02/04 17:04:50;;;;;;;5.25;2.47;;;-0.20;99.90;;;;;;5074499;28;20021;-72
2022/02/04 17:07:23;;;;;;;4.90;2.00;;;-0.20;99.90;;;;;;5073082;28;20570;-73
2022/02/04 17:09:52;;;;;;;4.07;1.85;;;-0.10;99.90;;;;;;5074397;28;20017;-73
2022/02/04 17:12:27;;;;;;;7.15;4.28;;;-0.10;99.90;;;;;;5074325;28;20024;-71
2022/02/04 17:14:53;;;;;;;5.88;2.30;;;0.00;99.90;;;;;;5074362;28;20665;-71
2022/02/04 17:17:24;;;;;;;3.45;1.70;;;0.00;99.90;;;;;;5074309;28;20124;-71
2022/02/04 17:20:01;;;;;;;2.05;1.52;;;0.10;99.90;;;;;;5074414;28;20372;-71
2022/02/04 17:22:27;;;;;;;5.60;1.92;;;0.10;99.90;;;;;;5074337;28;20081;-71
2022/02/04 17:24:52;;;;;;;3.47;2.17;;;0.10;99.90;;;;;;5074023;28;20020;-71
2022/02/04 17:27:18;;;;;;;4.30;2.25;;;0.20;99.90;;;;;;5073204;28;20040;-70
2022/02/04 17:29:44;;;;;;;2.00;1.67;;;0.20;99.90;;;;;;5073996;28;20056;-70
2022/02/04 17:32:10;;;;;;;3.60;1.70;;;0.20;99.90;;;;;;5072406;28;20028;-71
2022/02/04 17:34:35;;;;;;;2.17;1.80;;;0.20;99.90;;;;;;5073904;28;20016;-71
2022/02/04 17:37:01;;;;;;;2.75;1.63;;;0.20;99.90;;;;;;5073432;28;20090;-71
2022/02/04 17:39:27;;;;;;;4.32;1.88;;;0.30;99.90;;;;;;5072700;28;20026;-71
2022/02/04 17:41:57;;;;;;;5.95;1.98;;;0.30;99.90;;;;;;5073553;28;20100;-71
2022/02/04 17:44:24;;;;;;;2.83;1.55;;;0.80;99.90;;;;;;5073965;28;20082;-73
2022/02/04 17:46:50;;;;;;;2.88;1.45;;;0.70;99.90;;;;;;5073366;28;20483;-72
2022/02/04 17:53:16;;;;;;;2.58;1.20;;;0.60;99.90;;;;;;5059607;28;20047;-73
2022/02/04 17:55:11;;;;;;;3.58;1.23;;;0.70;99.90;;;;;;5069252;28;20043;-73
2022/02/04 18:03:08;;;;;;;1.65;1.35;;;0.50;99.90;;;;;;5093637;28;20022;-73
2022/02/04 18:08:03;;;;;;;3.47;1.38;;;0.50;99.90;;;;;;5093637;28;20514;-71
2022/02/04 18:10:29;;;;;;;3.47;1.70;;;0.50;99.90;;;;;;5093501;28;20494;-73
2022/02/04 18:12:54;;;;;;;1.10;1.00;;;0.50;99.90;;;;;;5093361;28;20024;-74
2022/02/04 18:15:20;;;;;;;1.73;1.23;;;0.50;99.90;;;;;;5093313;28;20036;-72
2022/02/04 18:17:46;;;;;;;1.58;1.10;;;0.50;99.90;;;;;;5093653;28;20073;-73
2022/02/04 18:20:12;;;;;;;1.55;1.27;;;0.60;99.90;;;;;;5093031;28;20063;-72
2022/02/04 18:22:38;;;;;;;2.78;1.58;;;0.50;99.90;;;;;;5093584;28;20058;-73
2022/02/04 18:25:05;;;;;;;1.90;1.27;;;0.60;99.90;;;;;;5093104;28;20058;-73
2022/02/04 18:27:32;;;;;;;3.20;1.27;;;0.60;99.90;;;;;;5093011;28;20152;-73
2022/02/04 18:29:59;;;;;;;2.80;1.27;;;0.60;99.90;;;;;;5084423;28;20035;-73
2022/02/04 18:32:25;;;;;;;4.43;1.27;;;0.60;99.90;;;;;;5084245;28;20080;-73
2022/02/04 18:34:53;;;;;;;1.90;1.10;;;0.60;99.90;;;;;;5092977;28;20020;-73
2022/02/04 18:37:20;;;;;;;1.98;1.15;;;0.60;99.90;;;;;;5092986;28;20048;-73
2022/02/04 18:44:53;;;;;;;1.30;1.20;;;0.70;99.90;;;;;;5092904;28;20348;-71
2022/02/04 18:50:01;;;;;;;1.77;1.20;;;0.70;99.90;;;;;;5092771;28;20106;-72
2022/02/04 18:58:08;;;;;;;2.88;2.20;;;1.10;99.90;;;;;;5049999;28;20389;-72
2022/02/04 19:00:33;;;;;;;2.95;1.40;;;1.10;99.90;;;;;;5073096;28;20430;-72
2022/02/04 19:03:03;;;;;;;2.65;1.40;;;1.00;99.90;;;;;;5092498;28;20056;-74
2022/02/04 19:05:34;;;;;;;6.30;1.97;;;0.90;99.90;;;;;;5092511;28;20047;-73
2022/02/04 19:08:09;;;;;;;2.20;1.38;;;0.90;99.90;;;;;;5092440;28;20036;-73
2022/02/04 19:10:37;;;;;;;5.35;1.52;;;0.90;99.90;;;;;;5090855;28;20528;-72
2022/02/04 19:13:19;;;;;;;3.33;1.60;;;0.90;99.90;;;;;;5092392;28;20036;-73
2022/02/04 19:18:29;;;;;;;1.63;1.13;;;0.90;99.90;;;;;;5092805;28;20028;-72
2022/02/04 19:21:05;;;;;;;1.42;0.98;;;0.90;99.90;;;;;;5092391;28;20161;-72
2022/02/04 19:23:31;;;;;;;1.42;1.00;;;0.90;99.90;;;;;;5092727;28;20031;-73
2022/02/04 19:26:00;;;;;;;2.17;1.10;;;0.90;99.90;;;;;;5091969;28;20119;-73
2022/02/04 19:28:28;;;;;;;1.50;0.90;;;0.90;99.90;;;;;;5092207;28;20023;-73
2022/02/04 19:30:57;;;;;;;2.58;1.20;;;0.90;99.90;;;;;;5091934;28;20468;-72
2022/02/04 19:33:24;;;;;;;1.05;0.82;;;0.90;99.90;;;;;;5092092;28;20031;-72
2022/02/04 19:35:50;;;;;;;3.72;0.82;;;1.00;99.90;;;;;;5092121;28;20107;-72
2022/02/04 19:38:16;;;;;;;1.15;0.82;;;1.00;99.90;;;;;;5091732;28;20111;-73
2022/02/04 19:40:45;;;;;;;1.20;1.10;;;1.00;99.90;;;;;;5092000;28;20024;-73
2022/02/04 19:43:13;;;;;;;1.30;0.88;;;0.90;99.90;;;;;;5091938;28;20036;-73
2022/02/04 19:46:03;;;;;;;1.27;0.90;;;1.00;99.90;;;;;;5092125;28;20126;-73
2022/02/04 19:48:35;;;;;;;0.80;0.80;;;1.00;99.90;;;;;;5092118;28;20058;-73
2022/02/04 20:26:06;;;;;;;13.73;3.75;;;1.10;99.90;;;;;;5095456;28;20448;-72
2022/02/04 20:28:32;;;;;;;1.58;1.15;;;1.10;99.90;;;;;;5095969;28;20102;-73
2022/02/04 20:30:58;;;;;;;1.48;0.90;;;1.10;99.90;;;;;;5088779;28;20020;-73
2022/02/04 20:33:24;;;;;;;3.75;1.73;;;1.10;99.90;;;;;;5095491;28;20151;-73
2022/02/04 20:35:50;;;;;;;1.55;1.05;;;1.10;99.90;;;;;;5095637;28;20028;-74
2022/02/04 20:38:19;;;;;;;2.55;1.00;;;1.10;99.90;;;;;;5095007;28;20408;-73
2022/02/04 20:41:31;;;;;;;3.50;1.30;;;1.10;99.90;;;;;;5095196;28;20020;-72
2022/02/04 20:43:37;;;;;;;1.38;1.10;;;1.10;99.90;;;;;;5089404;28;20042;-72
2022/02/04 20:46:03;;;;;;;4.93;1.80;;;1.20;99.90;;;;;;5094843;28;20415;-72
2022/02/04 20:48:36;;;;;;;9.35;2.33;;;1.30;99.90;;;;;;5095059;28;20032;-72
2022/02/04 20:51:05;;;;;;;5.68;1.42;;;1.40;99.90;;;;;;5094964;28;20039;-72
2022/02/04 20:53:31;;;;;;;3.08;1.38;;;1.50;99.90;;;;;;5094972;28;20080;-71
2022/02/04 20:55:57;;;;;;;1.40;1.13;;;1.40;99.90;;;;;;5088177;28;20027;-71
2022/02/04 20:58:25;;;;;;;0.93;0.80;;;1.40;99.90;;;;;;5092033;28;20020;-71
2022/02/04 21:00:52;;;;;;;1.17;0.80;;;1.40;99.90;;;;;;5080716;28;20379;-73
2022/02/04 21:03:18;;;;;;;0.70;0.70;;;1.30;99.90;;;;;;5094745;28;20024;-74
2022/02/04 21:05:49;;;;;;;0.63;0.63;;;1.30;99.90;;;;;;5092340;28;20016;-73
2022/02/04 21:13:48;;;;;;;0.93;0.70;;;1.30;99.90;;;;;;5094049;28;20502;-74
2022/02/04 21:16:21;;;;;;;3.58;0.82;;;1.30;99.90;;;;;;5087053;28;20025;-74
2022/02/04 21:18:48;;;;;;;1.17;0.70;;;1.30;99.90;;;;;;5084626;28;20032;-74